sensor_id;sensor_type;location;lat;lon;timestamp;temperature;humidity
12922;DHT22;6528;48.086;16.282;2023-08-20T00:01:54;25.80;99.90
12922;DHT22;6528;48.086;16.282;2023-08-20T00:04:25;25.70;99.90
12922;DHT22;6528;48.086;16.282;2023-08-20T00:06:53;25.70;99.90
12922;DHT22;6528;48.086;16.282;2023-08-20T00:09:21;25.70;99.90
12922;DHT22;6528;48.086;16.282;2023-08-20T00:11:48;25.70;1.00
12922;DHT22;6528;48.086;16.282;2023-08-20T00:14:17;25.60;1.00
12922;DHT22;6528;48.086;16.282;2023-08-20T00:16:46;25.70;99.90
12922;DHT22;6528;48.086;16.282;2023-08-20T00:19:14;25.70;1.00
12922;DHT22;6528;48.086;16.282;2023-08-20T00:21:42;25.60;1.00
12922;DHT22;6528;48.086;16.282;2023-08-20T00:24:12;25.70;1.00
12922;DHT22;6528;48.086;16.282;2023-08-20T00:26:40;25.60;1.00
12922;DHT22;6528;48.086;16.282;2023-08-20T00:29:08;25.60;1.00
12922;DHT22;6528;48.086;16.282;2023-08-20T00:31:35;25.60;1.00
12922;DHT22;6528;48.086;16.282;2023-08-20T00:34:03;25.70;99.90
12922;DHT22;6528;48.086;16.282;2023-08-20T00:36:33;25.60;1.00
12922;DHT22;6528;48.086;16.282;2023-08-20T00:39:01;25.60;1.00
12922;DHT22;6528;48.086;16.282;2023-08-20T00:41:28;25.60;99.90
12922;DHT22;6528;48.086;16.282;2023-08-20T00:43:56;25.60;1.00
12922;DHT22;6528;48.086;16.282;2023-08-20T00:46:23;25.60;1.00
12922;DHT22;6528;48.086;16.282;2023-08-20T00:48:51;25.60;99.90
12922;DHT22;6528;48.086;16.282;2023-08-20T00:51:19;25.60;99.90
12922;DHT22;6528;48.086;16.282;2023-08-20T00:53:46;25.60;99.90
12922;DHT22;6528;48.086;16.282;2023-08-20T00:56:15;25.60;99.90
12922;DHT22;6528;48.086;16.282;2023-08-20T00:58:43;25.60;99.90
12922;DHT22;6528;48.086;16.282;2023-08-20T01:01:10;25.60;99.90
12922;DHT22;6528;48.086;16.282;2023-08-20T01:03:38;25.60;99.90
12922;DHT22;6528;48.086;16.282;2023-08-20T01:09:25;25.60;99.90
12922;DHT22;6528;48.086;16.282;2023-08-20T01:11:59;25.50;99.90
12922;DHT22;6528;48.086;16.282;2023-08-20T01:14:26;25.50;99.90
12922;DHT22;6528;48.086;16.282;2023-08-20T01:16:54;25.60;99.90
12922;DHT22;6528;48.086;16.282;2023-08-20T01:19:22;25.50;99.90
12922;DHT22;6528;48.086;16.282;2023-08-20T01:22:13;25.50;99.90
12922;DHT22;6528;48.086;16.282;2023-08-20T01:28:20;25.50;99.90
12922;DHT22;6528;48.086;16.282;2023-08-20T01:30:44;25.50;99.90
12922;DHT22;6528;48.086;16.282;2023-08-20T01:33:14;25.50;99.90
12922;DHT22;6528;48.086;16.282;2023-08-20T01:35:43;25.40;99.90
12922;DHT22;6528;48.086;16.282;2023-08-20T01:38:10;25.40;99.90
12922;DHT22;6528;48.086;16.282;2023-08-20T01:40:37;25.40;99.90
12922;DHT22;6528;48.086;16.282;2023-08-20T01:43:05;25.40;99.90
12922;DHT22;6528;48.086;16.282;2023-08-20T01:45:33;25.40;99.90
12922;DHT22;6528;48.086;16.282;2023-08-20T01:48:00;25.40;99.90
12922;DHT22;6528;48.086;16.282;2023-08-20T01:50:28;25.40;99.90
12922;DHT22;6528;48.086;16.282;2023-08-20T01:52:56;25.40;99.90
12922;DHT22;6528;48.086;16.282;2023-08-20T01:55:24;25.40;99.90
12922;DHT22;6528;48.086;16.282;2023-08-20T01:57:52;25.40;99.90
12922;DHT22;6528;48.086;16.282;2023-08-20T02:00:20;25.30;99.90
12922;DHT22;6528;48.086;16.282;2023-08-20T02:02:47;25.30;1.00
12922;DHT22;6528;48.086;16.282;2023-08-20T02:05:15;25.30;99.90
12922;DHT22;6528;48.086;16.282;2023-08-20T02:07:43;25.30;99.90
12922;DHT22;6528;48.086;16.282;2023-08-20T02:10:10;25.30;99.90
12922;DHT22;6528;48.086;16.282;2023-08-20T02:12:38;25.30;99.90
12922;DHT22;6528;48.086;16.282;2023-08-20T02:15:06;25.20;99.90
12922;DHT22;6528;48.086;16.282;2023-08-20T02:17:34;25.20;99.90
12922;DHT22;6528;48.086;16.282;2023-08-20T02:20:04;25.20;99.90
12922;DHT22;6528;48.086;16.282;2023-08-20T02:22:31;25.20;99.90
12922;DHT22;6528;48.086;16.282;2023-08-20T02:25:02;25.20;99.90
12922;DHT22;6528;48.086;16.282;2023-08-20T02:27:30;25.10;99.90
12922;DHT22;6528;48.086;16.282;2023-08-20T02:29:59;25.10;99.90
12922;DHT22;6528;48.086;16.282;2023-08-20T02:32:26;25.10;99.90
12922;DHT22;6528;48.086;16.282;2023-08-20T02:34:54;25.10;99.90
12922;DHT22;6528;48.086;16.282;2023-08-20T02:37:22;25.10;99.90
12922;DHT22;6528;48.086;16.282;2023-08-20T02:39:49;25.00;99.90
12922;DHT22;6528;48.086;16.282;2023-08-20T02:42:16;25.00;99.90
12922;DHT22;6528;48.086;16.282;2023-08-20T02:44:44;25.00;99.90
12922;DHT22;6528;48.086;16.282;2023-08-20T02:47:11;24.90;99.90
12922;DHT22;6528;48.086;16.282;2023-08-20T02:49:39;24.90;99.90
12922;DHT22;6528;48.086;16.282;2023-08-20T02:52:06;25.00;99.90
12922;DHT22;6528;48.086;16.282;2023-08-20T02:54:34;25.00;99.90
12922;DHT22;6528;48.086;16.282;2023-08-20T02:57:02;24.90;99.90
12922;DHT22;6528;48.086;16.282;2023-08-20T02:59:29;25.00;99.90
12922;DHT22;6528;48.086;16.282;2023-08-20T03:01:57;25.00;99.90
12922;DHT22;6528;48.086;16.282;2023-08-20T03:04:25;25.00;99.90
12922;DHT22;6528;48.086;16.282;2023-08-20T03:06:52;25.00;99.90
12922;DHT22;6528;48.086;16.282;2023-08-20T03:09:20;25.00;99.90
12922;DHT22;6528;48.086;16.282;2023-08-20T03:11:47;25.00;99.90
12922;DHT22;6528;48.086;16.282;2023-08-20T03:14:15;24.90;99.90
12922;DHT22;6528;48.086;16.282;2023-08-20T03:16:43;24.90;99.90
12922;DHT22;6528;48.086;16.282;2023-08-20T03:19:10;24.90;99.90
12922;DHT22;6528;48.086;16.282;2023-08-20T03:21:37;24.80;99.90
12922;DHT22;6528;48.086;16.282;2023-08-20T03:24:05;24.90;99.90
12922;DHT22;6528;48.086;16.282;2023-08-20T03:26:33;24.80;99.90
12922;DHT22;6528;48.086;16.282;2023-08-20T03:29:00;24.80;99.90
12922;DHT22;6528;48.086;16.282;2023-08-20T03:31:28;24.80;99.90
12922;DHT22;6528;48.086;16.282;2023-08-20T03:33:55;24.70;99.90
12922;DHT22;6528;48.086;16.282;2023-08-20T03:36:23;24.70;99.90
12922;DHT22;6528;48.086;16.282;2023-08-20T03:38:51;24.60;99.90
12922;DHT22;6528;48.086;16.282;2023-08-20T03:41:18;24.60;99.90
12922;DHT22;6528;48.086;16.282;2023-08-20T03:43:46;24.60;99.90
12922;DHT22;6528;48.086;16.282;2023-08-20T03:46:14;24.60;99.90
12922;DHT22;6528;48.086;16.282;2023-08-20T03:48:42;24.60;99.90
12922;DHT22;6528;48.086;16.282;2023-08-20T03:51:09;24.70;99.90
12922;DHT22;6528;48.086;16.282;2023-08-20T03:53:37;24.60;99.90
12922;DHT22;6528;48.086;16.282;2023-08-20T03:56:04;24.60;99.90
12922;DHT22;6528;48.086;16.282;2023-08-20T03:58:32;24.70;99.90
12922;DHT22;6528;48.086;16.282;2023-08-20T04:00:59;24.70;99.90
12922;DHT22;6528;48.086;16.282;2023-08-20T04:03:27;24.70;99.90
12922;DHT22;6528;48.086;16.282;2023-08-20T04:05:55;24.60;99.90
12922;DHT22;6528;48.086;16.282;2023-08-20T04:08:22;24.60;99.90
12922;DHT22;6528;48.086;16.282;2023-08-20T04:10:51;24.60;99.90
12922;DHT22;6528;48.086;16.282;2023-08-20T04:13:18;24.60;99.90
12922;DHT22;6528;48.086;16.282;2023-08-20T04:15:47;24.60;99.90
12922;DHT22;6528;48.086;16.282;2023-08-20T04:18:14;24.60;99.90
12922;DHT22;6528;48.086;16.282;2023-08-20T04:20:42;24.60;99.90
12922;DHT22;6528;48.086;16.282;2023-08-20T04:23:09;24.60;99.90
12922;DHT22;6528;48.086;16.282;2023-08-20T04:25:36;24.60;99.90
12922;DHT22;6528;48.086;16.282;2023-08-20T04:28:04;24.70;99.90
12922;DHT22;6528;48.086;16.282;2023-08-20T04:30:31;24.70;99.90
12922;DHT22;6528;48.086;16.282;2023-08-20T04:32:58;24.70;99.90
12922;DHT22;6528;48.086;16.282;2023-08-20T04:35:26;24.70;99.90
12922;DHT22;6528;48.086;16.282;2023-08-20T04:37:53;24.70;99.90
12922;DHT22;6528;48.086;16.282;2023-08-20T04:40:21;24.70;99.90
12922;DHT22;6528;48.086;16.282;2023-08-20T04:42:49;24.70;99.90
12922;DHT22;6528;48.086;16.282;2023-08-20T04:45:16;24.60;99.90
12922;DHT22;6528;48.086;16.282;2023-08-20T04:47:46;24.70;99.90
12922;DHT22;6528;48.086;16.282;2023-08-20T04:50:14;24.60;99.90
12922;DHT22;6528;48.086;16.282;2023-08-20T04:52:45;24.70;99.90
12922;DHT22;6528;48.086;16.282;2023-08-20T04:55:13;24.60;99.90
12922;DHT22;6528;48.086;16.282;2023-08-20T04:57:42;24.60;99.90
12922;DHT22;6528;48.086;16.282;2023-08-20T05:00:10;24.60;99.90
12922;DHT22;6528;48.086;16.282;2023-08-20T05:02:37;24.60;99.90
12922;DHT22;6528;48.086;16.282;2023-08-20T05:05:06;24.60;99.90
12922;DHT22;6528;48.086;16.282;2023-08-20T05:07:33;24.60;99.90
12922;DHT22;6528;48.086;16.282;2023-08-20T05:10:01;24.60;99.90
12922;DHT22;6528;48.086;16.282;2023-08-20T05:12:29;24.60;99.90
12922;DHT22;6528;48.086;16.282;2023-08-20T05:14:56;24.60;99.90
12922;DHT22;6528;48.086;16.282;2023-08-20T05:17:24;24.60;99.90
12922;DHT22;6528;48.086;16.282;2023-08-20T05:19:51;24.60;99.90
12922;DHT22;6528;48.086;16.282;2023-08-20T05:22:21;24.70;99.90
12922;DHT22;6528;48.086;16.282;2023-08-20T05:24:48;24.70;99.90
12922;DHT22;6528;48.086;16.282;2023-08-20T05:27:16;24.70;99.90
12922;DHT22;6528;48.086;16.282;2023-08-20T05:29:45;24.70;99.90
12922;DHT22;6528;48.086;16.282;2023-08-20T05:32:13;24.70;99.90
12922;DHT22;6528;48.086;16.282;2023-08-20T05:34:42;24.80;99.90
12922;DHT22;6528;48.086;16.282;2023-08-20T05:37:09;24.80;99.90
12922;DHT22;6528;48.086;16.282;2023-08-20T05:39:40;24.80;99.90
12922;DHT22;6528;48.086;16.282;2023-08-20T05:42:09;24.80;99.90
12922;DHT22;6528;48.086;16.282;2023-08-20T05:44:37;24.90;99.90
12922;DHT22;6528;48.086;16.282;2023-08-20T05:47:05;24.90;99.90
12922;DHT22;6528;48.086;16.282;2023-08-20T05:49:33;24.90;99.90
12922;DHT22;6528;48.086;16.282;2023-08-20T05:52:01;24.90;99.90
12922;DHT22;6528;48.086;16.282;2023-08-20T05:54:28;24.90;99.90
12922;DHT22;6528;48.086;16.282;2023-08-20T05:56:57;24.90;99.90
12922;DHT22;6528;48.086;16.282;2023-08-20T05:59:27;24.90;99.90
12922;DHT22;6528;48.086;16.282;2023-08-20T06:01:54;24.90;99.90
12922;DHT22;6528;48.086;16.282;2023-08-20T06:04:22;24.90;99.90
12922;DHT22;6528;48.086;16.282;2023-08-20T06:06:50;24.90;99.90
12922;DHT22;6528;48.086;16.282;2023-08-20T06:09:18;24.90;99.90
12922;DHT22;6528;48.086;16.282;2023-08-20T06:11:45;25.00;99.90
12922;DHT22;6528;48.086;16.282;2023-08-20T06:14:13;25.00;99.90
12922;DHT22;6528;48.086;16.282;2023-08-20T06:16:40;25.00;99.90
12922;DHT22;6528;48.086;16.282;2023-08-20T06:19:07;25.00;99.90
12922;DHT22;6528;48.086;16.282;2023-08-20T06:21:35;25.10;99.90
12922;DHT22;6528;48.086;16.282;2023-08-20T06:24:02;25.10;99.90
12922;DHT22;6528;48.086;16.282;2023-08-20T06:26:30;25.10;99.90
12922;DHT22;6528;48.086;16.282;2023-08-20T06:28:57;25.10;99.90
12922;DHT22;6528;48.086;16.282;2023-08-20T06:31:25;25.10;99.90
12922;DHT22;6528;48.086;16.282;2023-08-20T06:33:53;25.20;99.90
12922;DHT22;6528;48.086;16.282;2023-08-20T06:36:20;25.20;99.90
12922;DHT22;6528;48.086;16.282;2023-08-20T06:38:47;25.30;99.90
12922;DHT22;6528;48.086;16.282;2023-08-20T06:41:14;25.30;99.90
12922;DHT22;6528;48.086;16.282;2023-08-20T06:43:41;25.30;99.90
12922;DHT22;6528;48.086;16.282;2023-08-20T06:46:09;25.30;99.90
12922;DHT22;6528;48.086;16.282;2023-08-20T06:48:36;25.40;99.90
12922;DHT22;6528;48.086;16.282;2023-08-20T06:51:12;25.40;99.90
12922;DHT22;6528;48.086;16.282;2023-08-20T06:53:41;25.50;99.90
12922;DHT22;6528;48.086;16.282;2023-08-20T06:56:09;25.50;99.90
12922;DHT22;6528;48.086;16.282;2023-08-20T06:58:37;25.60;99.90
12922;DHT22;6528;48.086;16.282;2023-08-20T07:01:04;25.60;99.90
12922;DHT22;6528;48.086;16.282;2023-08-20T07:03:42;25.60;99.90
12922;DHT22;6528;48.086;16.282;2023-08-20T07:06:10;25.60;99.90
12922;DHT22;6528;48.086;16.282;2023-08-20T07:08:38;25.70;99.90
12922;DHT22;6528;48.086;16.282;2023-08-20T07:11:17;25.70;99.90
12922;DHT22;6528;48.086;16.282;2023-08-20T07:13:44;25.80;99.90
12922;DHT22;6528;48.086;16.282;2023-08-20T07:16:11;25.80;99.90
12922;DHT22;6528;48.086;16.282;2023-08-20T07:18:39;25.80;99.90
12922;DHT22;6528;48.086;16.282;2023-08-20T07:21:07;25.90;99.90
12922;DHT22;6528;48.086;16.282;2023-08-20T07:23:36;26.00;99.90
12922;DHT22;6528;48.086;16.282;2023-08-20T07:26:05;26.00;99.90
12922;DHT22;6528;48.086;16.282;2023-08-20T07:28:35;26.10;99.90
12922;DHT22;6528;48.086;16.282;2023-08-20T07:31:20;26.20;99.90
12922;DHT22;6528;48.086;16.282;2023-08-20T07:33:48;26.20;99.90
12922;DHT22;6528;48.086;16.282;2023-08-20T07:36:16;26.30;99.90
12922;DHT22;6528;48.086;16.282;2023-08-20T07:38:44;26.30;99.90
12922;DHT22;6528;48.086;16.282;2023-08-20T07:41:12;26.40;99.90
12922;DHT22;6528;48.086;16.282;2023-08-20T07:43:40;26.50;99.90
12922;DHT22;6528;48.086;16.282;2023-08-20T07:46:08;26.50;99.90
12922;DHT22;6528;48.086;16.282;2023-08-20T07:48:36;26.60;99.90
12922;DHT22;6528;48.086;16.282;2023-08-20T07:51:03;26.60;99.90
12922;DHT22;6528;48.086;16.282;2023-08-20T07:53:32;26.70;99.90
12922;DHT22;6528;48.086;16.282;2023-08-20T07:56:01;26.70;99.90
12922;DHT22;6528;48.086;16.282;2023-08-20T07:58:29;26.80;99.90
12922;DHT22;6528;48.086;16.282;2023-08-20T08:00:58;26.80;99.90
12922;DHT22;6528;48.086;16.282;2023-08-20T08:03:26;26.80;99.90
12922;DHT22;6528;48.086;16.282;2023-08-20T08:05:54;26.90;99.90
12922;DHT22;6528;48.086;16.282;2023-08-20T08:08:22;26.90;99.90
12922;DHT22;6528;48.086;16.282;2023-08-20T08:10:49;27.00;99.90
12922;DHT22;6528;48.086;16.282;2023-08-20T08:13:21;27.00;99.90
12922;DHT22;6528;48.086;16.282;2023-08-20T08:15:50;27.00;99.90
12922;DHT22;6528;48.086;16.282;2023-08-20T08:18:21;27.10;99.90
12922;DHT22;6528;48.086;16.282;2023-08-20T08:20:49;27.10;99.90
12922;DHT22;6528;48.086;16.282;2023-08-20T08:23:16;27.20;99.90
12922;DHT22;6528;48.086;16.282;2023-08-20T08:25:43;27.20;99.90
12922;DHT22;6528;48.086;16.282;2023-08-20T08:28:11;27.20;99.90
12922;DHT22;6528;48.086;16.282;2023-08-20T08:30:40;27.30;99.90
12922;DHT22;6528;48.086;16.282;2023-08-20T08:33:08;27.30;99.90
12922;DHT22;6528;48.086;16.282;2023-08-20T08:35:37;27.40;99.90
12922;DHT22;6528;48.086;16.282;2023-08-20T08:38:04;27.40;99.90
12922;DHT22;6528;48.086;16.282;2023-08-20T08:40:33;27.50;99.90
12922;DHT22;6528;48.086;16.282;2023-08-20T08:43:02;27.50;99.90
12922;DHT22;6528;48.086;16.282;2023-08-20T08:45:32;27.60;99.90
12922;DHT22;6528;48.086;16.282;2023-08-20T08:48:02;27.60;99.90
12922;DHT22;6528;48.086;16.282;2023-08-20T08:50:31;27.70;99.90
12922;DHT22;6528;48.086;16.282;2023-08-20T08:53:01;27.70;99.90
12922;DHT22;6528;48.086;16.282;2023-08-20T08:55:30;27.80;99.90
12922;DHT22;6528;48.086;16.282;2023-08-20T08:57:58;27.80;99.90
12922;DHT22;6528;48.086;16.282;2023-08-20T09:00:26;27.90;99.90
12922;DHT22;6528;48.086;16.282;2023-08-20T09:02:53;27.90;99.90
12922;DHT22;6528;48.086;16.282;2023-08-20T09:05:20;27.90;99.90
12922;DHT22;6528;48.086;16.282;2023-08-20T09:07:55;28.00;99.90
12922;DHT22;6528;48.086;16.282;2023-08-20T09:10:27;28.00;99.90
12922;DHT22;6528;48.086;16.282;2023-08-20T09:12:55;28.10;99.90
12922;DHT22;6528;48.086;16.282;2023-08-20T09:15:31;28.10;99.90
12922;DHT22;6528;48.086;16.282;2023-08-20T09:18:01;28.10;99.90
12922;DHT22;6528;48.086;16.282;2023-08-20T09:20:34;28.20;99.90
12922;DHT22;6528;48.086;16.282;2023-08-20T09:23:04;28.20;99.90
12922;DHT22;6528;48.086;16.282;2023-08-20T09:25:37;28.30;99.90
12922;DHT22;6528;48.086;16.282;2023-08-20T09:28:04;28.30;99.90
12922;DHT22;6528;48.086;16.282;2023-08-20T09:30:31;28.30;99.90
12922;DHT22;6528;48.086;16.282;2023-08-20T09:33:12;28.40;99.90
12922;DHT22;6528;48.086;16.282;2023-08-20T09:35:51;28.40;99.90
12922;DHT22;6528;48.086;16.282;2023-08-20T09:38:22;28.40;99.90
12922;DHT22;6528;48.086;16.282;2023-08-20T09:40:52;28.50;99.90
12922;DHT22;6528;48.086;16.282;2023-08-20T09:43:19;28.50;99.90
12922;DHT22;6528;48.086;16.282;2023-08-20T09:45:47;28.60;99.90
12922;DHT22;6528;48.086;16.282;2023-08-20T09:48:20;28.70;99.90
12922;DHT22;6528;48.086;16.282;2023-08-20T09:50:51;28.70;99.90
12922;DHT22;6528;48.086;16.282;2023-08-20T09:55:46;28.80;99.90
12922;DHT22;6528;48.086;16.282;2023-08-20T09:58:14;28.80;99.90
12922;DHT22;6528;48.086;16.282;2023-08-20T10:00:43;28.90;99.90
12922;DHT22;6528;48.086;16.282;2023-08-20T10:03:11;28.90;99.90
12922;DHT22;6528;48.086;16.282;2023-08-20T10:05:40;28.90;99.90
12922;DHT22;6528;48.086;16.282;2023-08-20T10:08:07;28.90;99.90
12922;DHT22;6528;48.086;16.282;2023-08-20T10:10:35;29.00;99.90
12922;DHT22;6528;48.086;16.282;2023-08-20T10:13:04;29.00;99.90
12922;DHT22;6528;48.086;16.282;2023-08-20T10:15:31;29.00;99.90
12922;DHT22;6528;48.086;16.282;2023-08-20T10:18:00;28.90;99.90
12922;DHT22;6528;48.086;16.282;2023-08-20T10:20:31;28.90;99.90
12922;DHT22;6528;48.086;16.282;2023-08-20T10:23:03;28.90;99.90
12922;DHT22;6528;48.086;16.282;2023-08-20T10:25:30;28.90;99.90
12922;DHT22;6528;48.086;16.282;2023-08-20T10:28:26;29.00;99.90
12922;DHT22;6528;48.086;16.282;2023-08-20T10:31:16;29.10;99.90
12922;DHT22;6528;48.086;16.282;2023-08-20T10:33:53;29.20;99.90
12922;DHT22;6528;48.086;16.282;2023-08-20T10:36:22;29.20;99.90
12922;DHT22;6528;48.086;16.282;2023-08-20T10:38:55;29.10;99.90
12922;DHT22;6528;48.086;16.282;2023-08-20T10:41:27;29.20;99.90
12922;DHT22;6528;48.086;16.282;2023-08-20T10:43:59;29.20;99.90
12922;DHT22;6528;48.086;16.282;2023-08-20T10:46:30;29.20;99.90
12922;DHT22;6528;48.086;16.282;2023-08-20T10:49:00;29.20;99.90
12922;DHT22;6528;48.086;16.282;2023-08-20T10:51:33;29.10;99.90
12922;DHT22;6528;48.086;16.282;2023-08-20T10:56:45;29.00;99.90
12922;DHT22;6528;48.086;16.282;2023-08-20T10:59:17;28.90;99.90
12922;DHT22;6528;48.086;16.282;2023-08-20T11:01:47;28.80;99.90
12922;DHT22;6528;48.086;16.282;2023-08-20T11:04:16;28.60;99.90
12922;DHT22;6528;48.086;16.282;2023-08-20T11:06:45;28.40;99.90
12922;DHT22;6528;48.086;16.282;2023-08-20T11:09:13;28.40;99.90
12922;DHT22;6528;48.086;16.282;2023-08-20T11:11:40;28.30;99.90
12922;DHT22;6528;48.086;16.282;2023-08-20T11:14:15;28.30;99.90
12922;DHT22;6528;48.086;16.282;2023-08-20T11:16:43;28.10;99.90
12922;DHT22;6528;48.086;16.282;2023-08-20T11:19:13;28.10;99.90
12922;DHT22;6528;48.086;16.282;2023-08-20T11:21:42;28.10;99.90
12922;DHT22;6528;48.086;16.282;2023-08-20T11:24:10;28.00;99.90
12922;DHT22;6528;48.086;16.282;2023-08-20T11:26:41;28.00;99.90
12922;DHT22;6528;48.086;16.282;2023-08-20T11:29:10;27.90;99.90
12922;DHT22;6528;48.086;16.282;2023-08-20T11:31:39;27.90;99.90
12922;DHT22;6528;48.086;16.282;2023-08-20T11:34:07;27.80;99.90
12922;DHT22;6528;48.086;16.282;2023-08-20T11:36:35;27.80;99.90
12922;DHT22;6528;48.086;16.282;2023-08-20T11:39:03;27.80;99.90
12922;DHT22;6528;48.086;16.282;2023-08-20T11:41:30;27.70;99.90
12922;DHT22;6528;48.086;16.282;2023-08-20T11:43:57;27.70;99.90
12922;DHT22;6528;48.086;16.282;2023-08-20T11:46:25;27.70;99.90
12922;DHT22;6528;48.086;16.282;2023-08-20T11:49:11;27.70;99.90
12922;DHT22;6528;48.086;16.282;2023-08-20T11:51:43;27.70;99.90
12922;DHT22;6528;48.086;16.282;2023-08-20T11:54:17;27.60;99.90
12922;DHT22;6528;48.086;16.282;2023-08-20T11:56:52;27.60;99.90
12922;DHT22;6528;48.086;16.282;2023-08-20T11:59:28;27.60;99.90
12922;DHT22;6528;48.086;16.282;2023-08-20T12:01:58;27.60;99.90
12922;DHT22;6528;48.086;16.282;2023-08-20T12:04:29;27.60;99.90
12922;DHT22;6528;48.086;16.282;2023-08-20T12:09:34;27.60;99.90
12922;DHT22;6528;48.086;16.282;2023-08-20T12:12:04;27.60;99.90
12922;DHT22;6528;48.086;16.282;2023-08-20T12:14:32;27.50;99.90
12922;DHT22;6528;48.086;16.282;2023-08-20T12:16:59;27.50;99.90
12922;DHT22;6528;48.086;16.282;2023-08-20T12:19:26;27.50;99.90
12922;DHT22;6528;48.086;16.282;2023-08-20T12:21:54;27.50;99.90
12922;DHT22;6528;48.086;16.282;2023-08-20T12:24:21;27.50;99.90
12922;DHT22;6528;48.086;16.282;2023-08-20T12:26:50;27.50;99.90
12922;DHT22;6528;48.086;16.282;2023-08-20T12:29:18;27.50;99.90
12922;DHT22;6528;48.086;16.282;2023-08-20T12:31:46;27.50;99.90
12922;DHT22;6528;48.086;16.282;2023-08-20T12:34:13;27.50;99.90
12922;DHT22;6528;48.086;16.282;2023-08-20T12:36:41;27.50;99.90
12922;DHT22;6528;48.086;16.282;2023-08-20T12:39:08;27.50;99.90
12922;DHT22;6528;48.086;16.282;2023-08-20T12:41:35;27.50;99.90
12922;DHT22;6528;48.086;16.282;2023-08-20T12:44:03;27.50;99.90
12922;DHT22;6528;48.086;16.282;2023-08-20T12:46:31;27.50;99.90
12922;DHT22;6528;48.086;16.282;2023-08-20T12:48:58;27.40;99.90
12922;DHT22;6528;48.086;16.282;2023-08-20T12:51:26;27.50;99.90
12922;DHT22;6528;48.086;16.282;2023-08-20T12:53:54;27.40;99.90
12922;DHT22;6528;48.086;16.282;2023-08-20T12:56:21;27.40;99.90
12922;DHT22;6528;48.086;16.282;2023-08-20T12:58:48;27.40;99.90
12922;DHT22;6528;48.086;16.282;2023-08-20T13:01:15;27.40;99.90
12922;DHT22;6528;48.086;16.282;2023-08-20T13:03:44;27.40;99.90
12922;DHT22;6528;48.086;16.282;2023-08-20T13:06:14;27.40;99.90
12922;DHT22;6528;48.086;16.282;2023-08-20T13:08:44;27.40;99.90
12922;DHT22;6528;48.086;16.282;2023-08-20T13:11:13;27.40;99.90
12922;DHT22;6528;48.086;16.282;2023-08-20T13:13:44;27.40;99.90
12922;DHT22;6528;48.086;16.282;2023-08-20T13:16:11;27.30;99.90
12922;DHT22;6528;48.086;16.282;2023-08-20T13:18:38;27.30;99.90
12922;DHT22;6528;48.086;16.282;2023-08-20T13:21:07;27.30;99.90
12922;DHT22;6528;48.086;16.282;2023-08-20T13:23:35;27.30;99.90
12922;DHT22;6528;48.086;16.282;2023-08-20T13:26:02;27.30;99.90
12922;DHT22;6528;48.086;16.282;2023-08-20T13:28:31;27.30;99.90
12922;DHT22;6528;48.086;16.282;2023-08-20T13:30:59;27.30;99.90
12922;DHT22;6528;48.086;16.282;2023-08-20T13:33:26;27.40;99.90
12922;DHT22;6528;48.086;16.282;2023-08-20T13:35:53;27.30;99.90
12922;DHT22;6528;48.086;16.282;2023-08-20T13:38:25;27.30;99.90
12922;DHT22;6528;48.086;16.282;2023-08-20T13:40:52;27.30;99.90
12922;DHT22;6528;48.086;16.282;2023-08-20T13:43:20;27.30;99.90
12922;DHT22;6528;48.086;16.282;2023-08-20T13:45:47;27.30;99.90
12922;DHT22;6528;48.086;16.282;2023-08-20T13:48:14;27.30;99.90
12922;DHT22;6528;48.086;16.282;2023-08-20T13:50:42;27.30;99.90
12922;DHT22;6528;48.086;16.282;2023-08-20T13:53:09;27.30;99.90
12922;DHT22;6528;48.086;16.282;2023-08-20T13:55:37;27.30;99.90
12922;DHT22;6528;48.086;16.282;2023-08-20T13:58:04;27.30;99.90
12922;DHT22;6528;48.086;16.282;2023-08-20T14:00:35;27.30;99.90
12922;DHT22;6528;48.086;16.282;2023-08-20T14:03:02;27.30;99.90
12922;DHT22;6528;48.086;16.282;2023-08-20T14:05:30;27.30;99.90
12922;DHT22;6528;48.086;16.282;2023-08-20T14:07:58;27.30;99.90
12922;DHT22;6528;48.086;16.282;2023-08-20T14:10:26;27.30;99.90
12922;DHT22;6528;48.086;16.282;2023-08-20T14:12:52;27.30;99.90
12922;DHT22;6528;48.086;16.282;2023-08-20T14:15:19;27.30;99.90
12922;DHT22;6528;48.086;16.282;2023-08-20T14:17:48;27.30;99.90
12922;DHT22;6528;48.086;16.282;2023-08-20T14:20:15;27.30;99.90
12922;DHT22;6528;48.086;16.282;2023-08-20T14:22:43;27.30;99.90
12922;DHT22;6528;48.086;16.282;2023-08-20T14:25:11;27.30;99.90
12922;DHT22;6528;48.086;16.282;2023-08-20T14:27:39;27.30;99.90
12922;DHT22;6528;48.086;16.282;2023-08-20T14:30:07;27.40;99.90
12922;DHT22;6528;48.086;16.282;2023-08-20T14:32:35;27.30;99.90
12922;DHT22;6528;48.086;16.282;2023-08-20T14:35:08;27.30;99.90
12922;DHT22;6528;48.086;16.282;2023-08-20T14:37:37;27.30;99.90
12922;DHT22;6528;48.086;16.282;2023-08-20T14:40:05;27.30;99.90
12922;DHT22;6528;48.086;16.282;2023-08-20T14:42:33;27.30;99.90
12922;DHT22;6528;48.086;16.282;2023-08-20T14:45:01;27.30;99.90
12922;DHT22;6528;48.086;16.282;2023-08-20T14:47:31;27.30;99.90
12922;DHT22;6528;48.086;16.282;2023-08-20T14:49:59;27.30;99.90
12922;DHT22;6528;48.086;16.282;2023-08-20T14:52:28;27.30;99.90
12922;DHT22;6528;48.086;16.282;2023-08-20T14:54:55;27.30;99.90
12922;DHT22;6528;48.086;16.282;2023-08-20T14:57:22;27.30;99.90
12922;DHT22;6528;48.086;16.282;2023-08-20T15:00:07;27.30;99.90
12922;DHT22;6528;48.086;16.282;2023-08-20T15:02:36;27.30;99.90
12922;DHT22;6528;48.086;16.282;2023-08-20T15:05:04;27.30;99.90
12922;DHT22;6528;48.086;16.282;2023-08-20T15:07:33;27.30;99.90
12922;DHT22;6528;48.086;16.282;2023-08-20T15:10:02;27.30;99.90
12922;DHT22;6528;48.086;16.282;2023-08-20T15:12:33;27.30;99.90
12922;DHT22;6528;48.086;16.282;2023-08-20T15:15:02;27.30;99.90
12922;DHT22;6528;48.086;16.282;2023-08-20T15:17:31;27.40;99.90
12922;DHT22;6528;48.086;16.282;2023-08-20T15:19:59;27.40;99.90
12922;DHT22;6528;48.086;16.282;2023-08-20T15:22:27;27.30;99.90
12922;DHT22;6528;48.086;16.282;2023-08-20T15:24:54;27.40;99.90
12922;DHT22;6528;48.086;16.282;2023-08-20T15:27:24;27.40;99.90
12922;DHT22;6528;48.086;16.282;2023-08-20T15:29:53;27.30;99.90
12922;DHT22;6528;48.086;16.282;2023-08-20T15:32:20;27.40;99.90
12922;DHT22;6528;48.086;16.282;2023-08-20T15:34:48;27.40;99.90
12922;DHT22;6528;48.086;16.282;2023-08-20T15:37:15;27.40;99.90
12922;DHT22;6528;48.086;16.282;2023-08-20T15:39:43;27.40;99.90
12922;DHT22;6528;48.086;16.282;2023-08-20T15:42:10;27.40;99.90
12922;DHT22;6528;48.086;16.282;2023-08-20T15:44:39;27.40;99.90
12922;DHT22;6528;48.086;16.282;2023-08-20T15:47:07;27.40;99.90
12922;DHT22;6528;48.086;16.282;2023-08-20T15:49:35;27.40;99.90
12922;DHT22;6528;48.086;16.282;2023-08-20T15:52:02;27.40;99.90
12922;DHT22;6528;48.086;16.282;2023-08-20T15:54:30;27.40;99.90
12922;DHT22;6528;48.086;16.282;2023-08-20T15:56:57;27.40;99.90